Time;durP1;ratioP1;P1;durP2;ratioP2;P2;SDS_P1;SDS_P2;PMS_P1;PMS_P2;Temp;Humidity;BMP_temperature;BMP_pressure;BME280_temperature;BME280_humidity;BME280_pressure;Samples;Min_cycle;Max_cycle;Signal;HPM_P1;HPM_P2
2023/04/21 00:04:01;;;;;;;8.05;4.80;;;13.60;90.20;;;;;;10322336;28;20030;-88
2023/04/21 00:09:04;;;;;;;9.25;4.70;;;13.60;90.20;;;;;;10320589;28;20069;-89
2023/04/21 00:14:04;;;;;;;6.05;4.05;;;12.60;90.00;;;;;;10317408;28;20154;-89
2023/04/21 00:19:06;;;;;;;9.63;5.00;;;12.50;90.10;;;;;;10319070;28;20391;-89
2023/04/21 00:24:07;;;;;;;6.75;4.32;;;12.50;90.10;;;;;;10320127;28;20038;-90
2023/04/21 00:29:07;;;;;;;7.57;4.80;;;12.50;90.20;;;;;;10324744;28;20056;-89
2023/04/21 00:34:08;;;;;;;6.32;4.20;;;12.50;90.20;;;;;;10329160;28;20027;-88
2023/04/21 00:39:09;;;;;;;8.98;5.82;;;12.70;90.30;;;;;;10327639;28;20033;-88
2023/04/21 00:44:09;;;;;;;7.78;4.72;;;12.50;90.30;;;;;;10324214;28;20387;-88
2023/04/21 00:49:12;;;;;;;8.45;4.97;;;12.50;90.40;;;;;;10316061;28;20125;-89
2023/04/21 00:54:12;;;;;;;8.77;4.65;;;12.80;90.50;;;;;;10314376;28;20084;-89
2023/04/21 00:59:13;;;;;;;9.98;4.97;;;12.60;90.50;;;;;;10323997;28;20018;-88
2023/04/21 01:04:14;;;;;;;8.82;5.15;;;13.00;90.60;;;;;;10314497;28;20548;-89
2023/04/21 01:09:14;;;;;;;10.13;5.10;;;12.40;90.50;;;;;;10330892;28;20023;-88
2023/04/21 01:14:15;;;;;;;10.90;4.85;;;12.40;90.50;;;;;;10319249;28;20015;-89
2023/04/21 01:19:16;;;;;;;8.63;5.30;;;12.40;90.60;;;;;;10325246;28;20030;-88
2023/04/21 01:24:17;;;;;;;7.63;5.15;;;12.30;90.60;;;;;;10320144;28;20026;-88
2023/04/21 01:29:17;;;;;;;9.75;5.10;;;12.40;90.70;;;;;;10320585;28;20022;-88
2023/04/21 01:34:18;;;;;;;7.90;5.00;;;12.30;90.70;;;;;;10319291;28;20483;-89
2023/04/21 01:39:19;;;;;;;7.95;4.90;;;12.60;90.80;;;;;;10326314;28;20073;-89
2023/04/21 01:44:20;;;;;;;7.43;4.57;;;12.30;90.70;;;;;;10315526;28;20390;-89
2023/04/21 01:49:20;;;;;;;7.90;4.70;;;12.60;90.90;;;;;;10339725;28;20071;-88
2023/04/21 01:54:21;;;;;;;8.18;5.35;;;12.30;90.80;;;;;;10311982;28;20155;-88
2023/04/21 01:59:22;;;;;;;8.52;4.85;;;12.30;90.90;;;;;;10326073;28;20026;-89
2023/04/21 02:04:23;;;;;;;8.63;5.28;;;13.00;91.10;;;;;;10322599;28;20097;-89
2023/04/21 02:09:24;;;;;;;9.00;5.00;;;12.30;90.90;;;;;;10323598;28;20026;-88
2023/04/21 02:14:25;;;;;;;6.07;4.35;;;13.00;91.20;;;;;;10321536;28;20022;-88
2023/04/21 02:19:25;;;;;;;12.20;5.30;;;12.20;91.00;;;;;;10322432;28;20398;-88
2023/04/21 02:24:26;;;;;;;8.73;4.60;;;12.20;91.00;;;;;;10326348;28;20037;-88
2023/04/21 02:29:28;;;;;;;9.10;4.68;;;13.20;91.40;;;;;;10311516;28;20034;-88
2023/04/21 02:34:29;;;;;;;9.02;4.95;;;12.20;91.10;;;;;;10324386;28;20026;-88
2023/04/21 02:39:30;;;;;;;8.23;4.68;;;12.20;91.10;;;;;;10314932;28;20027;-88
2023/04/21 02:44:30;;;;;;;9.27;4.72;;;13.30;91.40;;;;;;10320907;28;20031;-88
2023/04/21 02:49:31;;;;;;;10.65;4.50;;;12.90;91.30;;;;;;10324031;28;20555;-88
2023/04/21 02:54:31;;;;;;;7.00;4.25;;;12.20;91.10;;;;;;10318818;28;20413;-88
2023/04/21 02:59:32;;;;;;;8.05;4.85;;;12.20;91.10;;;;;;10326559;28;20045;-89
2023/04/21 03:04:33;;;;;;;7.72;4.75;;;12.90;91.30;;;;;;10313738;28;20502;-88
2023/04/21 03:09:34;;;;;;;7.43;4.78;;;13.30;91.40;;;;;;10331546;28;20031;-89
2023/04/21 03:14:35;;;;;;;6.45;4.50;;;13.00;91.60;;;;;;10322241;28;20050;-88
2023/04/21 03:19:36;;;;;;;9.38;4.45;;;12.20;91.10;;;;;;10318786;28;20466;-88
2023/04/21 03:24:36;;;;;;;8.10;4.50;;;12.20;91.20;;;;;;10320728;28;20030;-89
2023/04/21 03:29:37;;;;;;;9.48;4.93;;;12.20;91.20;;;;;;10310535;28;20034;-88
2023/04/21 03:34:37;;;;;;;7.78;4.82;;;12.60;91.30;;;;;;10323506;28;20034;-88
2023/04/21 03:39:38;;;;;;;7.53;4.47;;;12.30;91.30;;;;;;10321028;28;20818;-88
2023/04/21 03:44:38;;;;;;;5.97;4.10;;;12.30;91.30;;;;;;10318416;28;20034;-89
2023/04/21 03:49:39;;;;;;;6.50;4.47;;;12.20;91.30;;;;;;10319399;28;20027;-88
2023/04/21 03:54:40;;;;;;;6.07;4.07;;;12.90;91.50;;;;;;10325389;28;20105;-89
2023/04/21 03:59:41;;;;;;;8.32;4.18;;;12.10;91.40;;;;;;10325351;28;20019;-89
2023/04/21 04:04:41;;;;;;;6.85;4.35;;;12.80;91.60;;;;;;10324098;28;20034;-88
2023/04/21 04:09:42;;;;;;;6.80;4.22;;;12.40;91.50;;;;;;10321721;28;20710;-88
2023/04/21 04:14:43;;;;;;;7.18;4.18;;;12.10;91.50;;;;;;10326374;28;20030;-87
2023/04/21 04:19:44;;;;;;;6.72;3.92;;;12.10;91.50;;;;;;10323307;28;20670;-88
2023/04/21 04:24:44;;;;;;;5.93;4.10;;;12.70;91.70;;;;;;10319086;28;20030;-90
2023/04/21 04:29:45;;;;;;;5.82;4.15;;;12.60;91.80;;;;;;10324864;28;20037;-88
2023/04/21 04:34:45;;;;;;;9.10;4.10;;;12.10;91.60;;;;;;10324238;28;20149;-89
2023/04/21 04:39:46;;;;;;;6.00;4.10;;;12.10;91.70;;;;;;10331725;28;20164;-89
2023/04/21 04:44:47;;;;;;;6.68;4.20;;;12.10;91.70;;;;;;10326875;28;20027;-88
2023/04/21 04:49:48;;;;;;;7.50;4.90;;;13.10;92.00;;;;;;10326827;28;20515;-88
2023/04/21 04:54:48;;;;;;;8.98;5.10;;;12.30;92.20;;;;;;10326098;28;20030;-87
2023/04/21 04:59:54;;;;;;;8.60;5.05;;;12.50;92.40;;;;;;10319209;28;20118;-86
2023/04/21 05:04:55;;;;;;;6.82;4.68;;;12.00;92.40;;;;;;10324901;28;20117;-87
2023/04/21 05:09:56;;;;;;;7.72;4.85;;;12.70;92.40;;;;;;10330059;28;20037;-89
2023/04/21 05:14:56;;;;;;;7.07;4.78;;;12.00;92.50;;;;;;10336790;28;20026;-89
2023/04/21 05:19:57;;;;;;;7.68;5.32;;;13.20;92.70;;;;;;10323744;28;20161;-90
2023/04/21 05:24:58;;;;;;;8.57;5.25;;;12.70;92.50;;;;;;10337661;28;20033;-90
2023/04/21 05:29:59;;;;;;;7.15;4.57;;;12.10;92.30;;;;;;10321653;28;20026;-91
2023/04/21 05:35:00;;;;;;;8.57;4.78;;;12.90;92.40;;;;;;10321503;28;20049;-89
2023/04/21 05:40:01;;;;;;;7.50;4.30;;;12.10;92.20;;;;;;10331799;28;20042;-89
2023/04/21 05:45:02;;;;;;;6.10;4.40;;;13.20;92.40;;;;;;10319295;28;20041;-89
2023/04/21 05:50:04;;;;;;;8.88;4.70;;;12.10;92.10;;;;;;10318031;28;20030;-89
2023/04/21 05:55:06;;;;;;;5.60;4.55;;;12.20;92.20;;;;;;10322232;28;20025;-89
2023/04/21 06:00:07;;;;;;;7.60;4.65;;;12.20;92.30;;;;;;10319879;28;20192;-90
2023/04/21 06:05:08;;;;;;;7.63;4.82;;;12.20;92.30;;;;;;10316901;28;20113;-87
2023/04/21 06:10:10;;;;;;;6.82;4.50;;;12.60;92.40;;;;;;10322182;28;20068;-88
2023/04/21 06:15:10;;;;;;;9.00;4.32;;;12.20;92.30;;;;;;10315222;28;20034;-90
2023/04/21 06:20:11;;;;;;;6.28;4.22;;;12.70;92.40;;;;;;10315451;28;20034;-89
2023/04/21 06:25:12;;;;;;;6.50;4.60;;;12.20;92.30;;;;;;10326836;28;20042;-89
2023/04/21 06:30:13;;;;;;;7.15;4.47;;;13.30;92.60;;;;;;10324725;28;20038;-89
2023/04/21 06:35:14;;;;;;;6.53;4.20;;;12.20;92.40;;;;;;10321518;28;21085;-91
2023/04/21 06:40:15;;;;;;;8.95;5.18;;;12.30;92.40;;;;;;10323400;28;20042;-89
2023/04/21 06:45:15;;;;;;;6.93;4.38;;;13.10;92.70;;;;;;10319465;28;20030;-88
2023/04/21 06:50:16;;;;;;;6.50;4.13;;;12.90;92.60;;;;;;10323781;28;20406;-89
2023/04/21 06:55:17;;;;;;;7.55;4.50;;;12.30;92.50;;;;;;10327511;28;20033;-89
2023/04/21 07:00:18;;;;;;;7.10;4.32;;;12.30;92.60;;;;;;10307052;28;20053;-90
2023/04/21 07:05:18;;;;;;;9.32;4.93;;;12.30;92.60;;;;;;10327504;28;20030;-89
2023/04/21 07:10:19;;;;;;;9.30;4.80;;;13.00;92.70;;;;;;10324694;28;20030;-89
2023/04/21 07:15:20;;;;;;;6.30;4.50;;;12.40;92.60;;;;;;10326154;28;20033;-88
2023/04/21 07:20:21;;;;;;;8.38;4.55;;;13.20;92.80;;;;;;10320512;28;20056;-88
2023/04/21 07:25:21;;;;;;;8.00;4.30;;;12.40;92.60;;;;;;10323734;28;20037;-89
2023/04/21 07:30:22;;;;;;;6.72;4.35;;;12.40;92.60;;;;;;10324920;28;20026;-89
2023/04/21 07:35:23;;;;;;;9.45;4.75;;;13.30;92.80;;;;;;10323923;28;20425;-87
2023/04/21 07:40:24;;;;;;;6.28;4.35;;;12.60;92.70;;;;;;10319340;28;20053;-88
2023/04/21 07:45:25;;;;;;;7.45;4.53;;;12.50;92.80;;;;;;10314154;28;20122;-89
2023/04/21 07:50:26;;;;;;;6.97;4.32;;;13.20;92.90;;;;;;10313382;28;20026;-88
2023/04/21 07:55:28;;;;;;;7.07;3.92;;;13.70;93.10;;;;;;10321068;28;20069;-89
2023/04/21 08:00:28;;;;;;;7.55;4.18;;;12.60;92.90;;;;;;10308202;28;20026;-88
2023/04/21 08:05:30;;;;;;;9.43;5.07;;;13.90;93.30;;;;;;10318003;28;20617;-88
2023/04/21 08:10:31;;;;;;;9.57;4.90;;;12.90;93.10;;;;;;10314583;28;20018;-89
2023/04/21 08:15:33;;;;;;;7.72;4.97;;;13.40;93.30;;;;;;10314185;28;20030;-87
2023/04/21 08:20:35;;;;;;;9.30;5.47;;;13.00;93.30;;;;;;10314080;28;20054;-88
2023/04/21 08:25:35;;;;;;;9.25;5.22;;;12.70;93.20;;;;;;10316928;28;20084;-89
2023/04/21 08:30:36;;;;;;;9.38;5.03;;;13.20;93.30;;;;;;10313310;28;20086;-89
2023/04/21 08:35:37;;;;;;;6.85;4.53;;;12.70;93.10;;;;;;10317411;28;20022;-88
2023/04/21 08:40:38;;;;;;;9.32;5.28;;;12.80;93.10;;;;;;10323810;28;20040;-88
2023/04/21 08:45:40;;;;;;;6.07;4.45;;;13.80;93.30;;;;;;10318814;28;20033;-88
2023/04/21 08:50:43;;;;;;;7.85;5.30;;;13.80;93.20;;;;;;10322146;28;20094;-88
2023/04/21 08:55:44;;;;;;;8.18;5.18;;;13.20;93.10;;;;;;10324460;28;20031;-89
2023/04/21 09:00:45;;;;;;;7.75;5.07;;;13.00;93.10;;;;;;10325037;28;20029;-89
2023/04/21 09:06:06;;;;;;;9.05;5.03;;;13.70;93.20;;;;;;10320327;28;20030;-87
2023/04/21 09:11:07;;;;;;;8.90;5.30;;;13.10;93.20;;;;;;10338668;28;20121;-87
2023/04/21 09:16:17;;;;;;;7.43;4.93;;;13.50;93.20;;;;;;10323846;28;20014;-89
2023/04/21 09:21:19;;;;;;;7.80;4.85;;;13.40;93.20;;;;;;10324132;28;20022;-88
2023/04/21 09:26:23;;;;;;;7.40;5.25;;;13.60;93.20;;;;;;10328458;28;20030;-87
2023/04/21 09:31:24;;;;;;;9.35;5.28;;;13.30;93.10;;;;;;10325459;28;20030;-88
2023/04/21 09:36:30;;;;;;;9.20;5.00;;;13.40;93.20;;;;;;10323094;28;20030;-88
2023/04/21 09:41:32;;;;;;;8.15;5.25;;;13.40;93.00;;;;;;10311797;28;20033;-88
2023/04/21 09:46:36;;;;;;;12.52;5.80;;;13.40;93.00;;;;;;10324130;28;20049;-87
2023/04/21 09:51:38;;;;;;;9.30;5.65;;;13.90;93.10;;;;;;10326798;28;20042;-87
2023/04/21 09:56:41;;;;;;;9.98;5.38;;;13.70;93.10;;;;;;10323908;28;20058;-86
2023/04/21 10:01:44;;;;;;;8.40;5.10;;;13.60;93.10;;;;;;10324243;28;20543;-88
2023/04/21 10:06:46;;;;;;;8.50;6.05;;;13.60;93.10;;;;;;10324166;28;20030;-87
2023/04/21 10:11:47;;;;;;;7.20;5.35;;;13.70;93.10;;;;;;10326031;28;20547;-88
2023/04/21 10:17:21;;;;;;;9.02;5.88;;;14.10;93.20;;;;;;10321653;28;20018;-87
2023/04/21 10:22:27;;;;;;;9.75;5.97;;;13.80;93.30;;;;;;10304223;28;20042;-85
2023/04/21 10:27:36;;;;;;;10.38;5.60;;;14.00;93.10;;;;;;10336352;28;20022;-86
2023/04/21 10:32:40;;;;;;;;;;;13.80;93.00;;;;;;10318095;28;20065;-87
2023/04/21 10:37:41;;;;;;;9.85;5.95;;;13.80;93.30;;;;;;10299510;28;20051;-85
2023/04/21 10:42:42;;;;;;;11.07;6.38;;;14.30;93.00;;;;;;10315640;28;20049;-84
2023/04/21 10:47:44;;;;;;;8.93;6.13;;;13.80;92.80;;;;;;10317279;28;20179;-86
2023/04/21 10:52:57;;;;;;;10.82;6.45;;;13.80;92.90;;;;;;10319782;28;20080;-88
2023/04/21 10:58:01;;;;;;;8.60;5.70;;;13.80;93.00;;;;;;10320081;28;20025;-87
2023/04/21 11:03:04;;;;;;;10.50;6.03;;;13.80;93.00;;;;;;10319873;28;20026;-86
2023/04/21 11:08:06;;;;;;;8.55;5.55;;;13.80;93.00;;;;;;10316784;28;20066;-88
2023/04/21 11:13:07;;;;;;;10.77;6.47;;;13.80;93.10;;;;;;10319173;28;20030;-87
2023/04/21 11:18:08;;;;;;;8.52;5.70;;;14.00;93.40;;;;;;10318529;28;20023;-88
2023/04/21 11:23:09;;;;;;;10.82;6.38;;;14.20;93.20;;;;;;10318819;28;20037;-88
2023/04/21 11:28:09;;;;;;;10.13;6.63;;;14.20;93.10;;;;;;10319265;28;20027;-88
2023/04/21 11:33:10;;;;;;;9.73;6.03;;;15.20;93.30;;;;;;10320093;28;20046;-86
2023/04/21 11:38:13;;;;;;;12.00;8.25;;;14.00;93.00;;;;;;10315426;28;20014;-87
2023/04/21 11:43:14;;;;;;;11.10;7.10;;;14.00;92.90;;;;;;10314367;28;20022;-89
2023/04/21 11:48:16;;;;;;;11.65;7.55;;;14.80;93.10;;;;;;10319562;28;20022;-88
2023/04/21 11:53:19;;;;;;;15.77;8.80;;;15.20;93.20;;;;;;10296322;28;20162;-88
2023/04/21 11:58:20;;;;;;;15.50;8.50;;;15.20;93.10;;;;;;10317055;28;20102;-90
2023/04/21 12:03:22;;;;;;;14.80;8.48;;;15.40;93.10;;;;;;10335342;28;20026;-90
2023/04/21 12:08:23;;;;;;;18.23;9.50;;;14.70;92.90;;;;;;10313569;28;20014;-89
2023/04/21 12:13:26;;;;;;;15.90;9.00;;;14.30;92.70;;;;;;10323973;28;20401;-91
2023/04/21 12:18:27;;;;;;;14.57;9.38;;;14.50;92.90;;;;;;10326540;28;20034;-87
2023/04/21 12:23:28;;;;;;;18.40;10.15;;;15.20;92.90;;;;;;10326853;28;20030;-87
2023/04/21 12:28:29;;;;;;;21.58;12.27;;;15.30;93.00;;;;;;10324832;28;20027;-87
2023/04/21 12:33:30;;;;;;;19.25;11.18;;;15.50;93.00;;;;;;10324370;28;20050;-90
2023/04/21 12:38:30;;;;;;;19.60;11.85;;;15.20;92.70;;;;;;10320763;28;20069;-88
2023/04/21 12:43:31;;;;;;;17.88;12.00;;;16.00;92.90;;;;;;10327270;28;20033;-88
2023/04/21 12:48:33;;;;;;;19.02;11.35;;;15.90;92.90;;;;;;10323947;28;20022;-88
2023/04/21 12:53:35;;;;;;;19.73;12.75;;;15.10;92.80;;;;;;10326276;28;20537;-89
2023/04/21 12:58:36;;;;;;;19.10;11.40;;;15.30;92.90;;;;;;10335840;28;20033;-89
2023/04/21 13:03:37;;;;;;;18.65;11.60;;;15.00;92.90;;;;;;10327504;28;20026;-88
2023/04/21 13:08:37;;;;;;;17.45;11.85;;;15.00;93.00;;;;;;10325176;28;20038;-89
2023/04/21 13:13:38;;;;;;;22.02;12.13;;;15.00;93.10;;;;;;10322980;28;20169;-88
2023/04/21 13:18:40;;;;;;;20.95;11.85;;;15.10;93.10;;;;;;10323743;28;20026;-89
2023/04/21 13:23:43;;;;;;;19.23;11.60;;;16.00;93.40;;;;;;10323003;28;20096;-92
2023/04/21 13:28:43;;;;;;;19.88;11.35;;;15.10;93.20;;;;;;10321114;28;20077;-90
2023/04/21 13:33:44;;;;;;;18.10;11.27;;;15.80;93.30;;;;;;10324025;28;20101;-89
2023/04/21 13:38:46;;;;;;;17.17;11.07;;;15.50;93.20;;;;;;10324894;28;20550;-90
2023/04/21 13:43:47;;;;;;;17.38;10.80;;;16.20;93.60;;;;;;10321800;28;20027;-89
2023/04/21 13:48:50;;;;;;;19.75;11.38;;;15.40;93.20;;;;;;10322848;28;20502;-91
2023/04/21 13:53:50;;;;;;;21.63;11.18;;;15.30;93.10;;;;;;10316403;28;20015;-90
2023/04/21 13:58:55;;;;;;;17.60;10.35;;;16.30;93.40;;;;;;10317589;28;20030;-92
2023/04/21 14:03:56;;;;;;;15.60;9.93;;;15.50;93.30;;;;;;10317316;28;20031;-92
2023/04/21 14:08:57;;;;;;;17.50;10.63;;;16.10;93.40;;;;;;10312462;28;20035;-91
2023/04/21 14:13:57;;;;;;;15.35;10.00;;;16.30;93.50;;;;;;10325078;28;20030;-90
2023/04/21 14:18:58;;;;;;;14.68;9.25;;;15.30;93.30;;;;;;10322262;28;20029;-91
2023/04/21 14:23:59;;;;;;;15.52;9.02;;;16.40;93.60;;;;;;10319248;28;20033;-90
2023/04/21 14:29:00;;;;;;;15.90;9.35;;;16.40;93.60;;;;;;10319585;28;20034;-90
2023/04/21 14:34:01;;;;;;;13.63;9.07;;;15.90;93.60;;;;;;10321408;28;20022;-91
2023/04/21 14:39:02;;;;;;;12.50;8.30;;;15.60;93.60;;;;;;10319663;28;20197;-90
2023/04/21 14:44:04;;;;;;;16.05;9.05;;;15.10;93.50;;;;;;10317690;28;20050;-89
2023/04/21 14:49:04;;;;;;;12.73;8.68;;;15.70;93.70;;;;;;10317776;28;20473;-89
2023/04/21 14:54:05;;;;;;;13.95;7.82;;;15.20;93.60;;;;;;10326028;23;20084;-73
2023/04/21 14:59:06;;;;;;;12.80;8.30;;;15.20;93.50;;;;;;10337236;28;20030;-73
2023/04/21 15:04:06;;;;;;;11.10;7.70;;;15.30;93.50;;;;;;10370835;28;20076;-73
2023/04/21 15:09:07;;;;;;;10.98;7.13;;;15.30;93.50;;;;;;10367758;28;20022;-72
2023/04/21 15:14:07;;;;;;;12.00;7.05;;;15.30;93.50;;;;;;10372994;28;20472;-72
2023/04/21 15:19:08;;;;;;;13.10;7.20;;;15.30;93.50;;;;;;10370158;28;20390;-73
2023/04/21 15:24:09;;;;;;;9.65;6.45;;;15.30;93.50;;;;;;10374692;28;20029;-72
2023/04/21 15:29:10;;;;;;;9.10;5.70;;;15.30;93.40;;;;;;10370488;28;20022;-71
2023/04/21 15:34:10;;;;;;;10.32;6.38;;;15.40;93.50;;;;;;10360580;28;20328;-71
2023/04/21 15:39:12;;;;;;;8.77;5.43;;;15.30;93.40;;;;;;10362807;28;20048;-73
2023/04/21 15:44:13;;;;;;;9.55;5.38;;;15.40;93.40;;;;;;10373718;28;20026;-71
2023/04/21 15:49:13;;;;;;;10.13;5.20;;;15.30;93.40;;;;;;10375047;28;20065;-71
2023/04/21 15:54:15;;;;;;;7.45;5.07;;;15.40;93.30;;;;;;10377907;28;20383;-73
2023/04/21 15:59:15;;;;;;;7.30;5.20;;;15.40;93.40;;;;;;10384872;28;20080;-72
2023/04/21 16:04:16;;;;;;;8.95;5.38;;;15.30;93.40;;;;;;10369114;28;20091;-74
2023/04/21 16:09:17;;;;;;;11.52;4.90;;;15.30;93.40;;;;;;10381455;28;20116;-74
2023/04/21 16:14:18;;;;;;;6.90;4.93;;;15.40;93.40;;;;;;10371793;28;20022;-74
2023/04/21 16:19:18;;;;;;;9.82;4.90;;;15.40;93.40;;;;;;10375588;28;20483;-74
2023/04/21 16:24:19;;;;;;;8.77;5.30;;;15.50;93.50;;;;;;10373272;28;20026;-70
2023/04/21 16:29:20;;;;;;;6.45;4.20;;;15.50;93.50;;;;;;10361163;28;20034;-69
2023/04/21 16:34:20;;;;;;;7.75;4.55;;;15.60;93.50;;;;;;10377444;28;20531;-69
2023/04/21 16:39:21;;;;;;;7.15;4.70;;;15.50;93.50;;;;;;10369274;28;20045;-69
2023/04/21 16:44:21;;;;;;;10.38;4.60;;;15.50;93.50;;;;;;10381664;28;20413;-68
2023/04/21 16:49:22;;;;;;;5.88;4.38;;;15.40;93.60;;;;;;10373109;28;20022;-68
2023/04/21 16:54:22;;;;;;;10.82;5.30;;;15.40;93.70;;;;;;10372273;28;20025;-70
2023/04/21 16:59:23;;;;;;;8.73;4.95;;;15.30;93.80;;;;;;10348110;28;20270;-69
2023/04/21 17:04:24;;;;;;;11.63;6.75;;;15.30;93.90;;;;;;10364337;28;20421;-70
2023/04/21 17:09:25;;;;;;;10.98;6.22;;;15.20;94.70;;;;;;10366171;28;20041;-70
2023/04/21 17:14:26;;;;;;;9.25;6.40;;;15.20;94.90;;;;;;10361229;28;20030;-71
2023/04/21 17:19:26;;;;;;;11.57;7.38;;;15.10;94.90;;;;;;10371693;28;20030;-69
2023/04/21 17:24:27;;;;;;;9.07;6.53;;;15.10;94.90;;;;;;10372749;28;20105;-70
2023/04/21 17:29:27;;;;;;;10.80;6.00;;;15.10;94.90;;;;;;10363596;28;20022;-70
2023/04/21 17:34:30;;;;;;;10.10;6.93;;;15.10;94.90;;;;;;10368098;28;20721;-70
2023/04/21 17:39:30;;;;;;;9.20;6.50;;;15.10;94.90;;;;;;10372995;28;20022;-70
2023/04/21 17:44:31;;;;;;;8.70;5.88;;;15.10;94.80;;;;;;10365191;28;20063;-70
2023/04/21 17:49:32;;;;;;;9.38;5.68;;;15.10;94.80;;;;;;10366894;28;20025;-70
2023/04/21 17:54:32;;;;;;;14.13;6.10;;;15.00;94.80;;;;;;10371893;28;20489;-70
2023/04/21 17:59:33;;;;;;;9.73;6.20;;;15.00;94.70;;;;;;10365629;28;20144;-70
2023/04/21 18:04:34;;;;;;;12.07;5.97;;;15.00;94.70;;;;;;10361483;28;20079;-70
2023/04/21 18:09:34;;;;;;;8.70;5.75;;;15.00;94.70;;;;;;10374720;28;20022;-70
2023/04/21 18:14:35;;;;;;;8.27;5.53;;;14.90;94.70;;;;;;10370031;28;20490;-70
2023/04/21 18:19:35;;;;;;;7.63;5.63;;;14.90;94.70;;;;;;10365411;28;20489;-70
2023/04/21 18:24:36;;;;;;;7.80;4.97;;;14.90;94.70;;;;;;10367635;28;20025;-70
2023/04/21 18:29:36;;;;;;;6.90;4.78;;;14.90;94.70;;;;;;10368314;28;20129;-70
2023/04/21 18:34:37;;;;;;;7.50;4.93;;;14.90;94.70;;;;;;10361593;28;20025;-70
2023/04/21 18:39:37;;;;;;;6.03;4.65;;;14.80;94.70;;;;;;10371713;28;20560;-71
2023/04/21 18:44:38;;;;;;;7.07;4.80;;;14.90;94.70;;;;;;10362757;28;20033;-71
2023/04/21 18:49:39;;;;;;;6.05;4.82;;;14.80;94.70;;;;;;10363491;28;20040;-71
2023/04/21 18:54:40;;;;;;;7.78;4.95;;;14.80;94.70;;;;;;10363656;28;20096;-71
2023/04/21 18:59:41;;;;;;;6.90;4.80;;;14.90;94.70;;;;;;10369970;28;20112;-71
2023/04/21 19:04:42;;;;;;;6.93;4.70;;;14.80;94.70;;;;;;10359297;28;20095;-70
2023/04/21 19:09:43;;;;;;;6.65;4.70;;;14.70;94.70;;;;;;10366783;28;20067;-71
2023/04/21 19:14:44;;;;;;;5.82;4.82;;;14.80;94.70;;;;;;10372391;28;20249;-71
2023/04/21 19:19:44;;;;;;;7.15;4.40;;;14.70;94.70;;;;;;10369194;28;20039;-70
2023/04/21 19:24:46;;;;;;;8.25;4.80;;;14.70;94.80;;;;;;10360848;28;20112;-71
2023/04/21 19:29:47;;;;;;;7.25;4.68;;;14.70;95.00;;;;;;10358117;28;20027;-71
2023/04/21 19:34:48;;;;;;;9.10;4.70;;;14.60;95.00;;;;;;10350770;28;20026;-71
2023/04/21 19:39:48;;;;;;;6.45;4.40;;;14.60;95.00;;;;;;10356335;28;20038;-71
2023/04/21 19:44:49;;;;;;;6.22;3.92;;;14.60;95.10;;;;;;10352033;28;20116;-71
2023/04/21 19:49:50;;;;;;;7.22;4.30;;;14.60;95.00;;;;;;10357561;28;20037;-71
2023/04/21 19:54:50;;;;;;;4.70;3.58;;;14.60;95.00;;;;;;10351884;28;20030;-71
2023/04/21 19:59:51;;;;;;;4.47;3.40;;;14.50;95.00;;;;;;10351359;28;20588;-71
2023/04/21 20:04:55;;;;;;;4.50;3.38;;;14.50;94.90;;;;;;10352255;28;20040;-70
2023/04/21 20:09:56;;;;;;;4.68;3.25;;;14.50;94.90;;;;;;10351079;28;20073;-71
2023/04/21 20:14:56;;;;;;;4.78;3.10;;;14.50;94.90;;;;;;10355059;28;20080;-70
2023/04/21 20:19:57;;;;;;;4.90;3.05;;;14.90;95.00;;;;;;10357329;28;20030;-71
2023/04/21 20:24:58;;;;;;;4.13;3.13;;;14.50;95.20;;;;;;10355610;28;20034;-71
2023/04/21 20:29:59;;;;;;;6.40;3.67;;;14.50;94.90;;;;;;10347466;28;20026;-71
2023/04/21 20:34:59;;;;;;;5.68;3.47;;;14.40;94.90;;;;;;10354418;28;20022;-70
2023/04/21 20:40:02;;;;;;;4.03;3.25;;;14.40;94.90;;;;;;10368153;28;20080;-70
2023/04/21 20:45:05;;;;;;;5.68;3.00;;;14.50;94.90;;;;;;10371670;28;20109;-71
2023/04/21 20:50:06;;;;;;;3.95;3.28;;;14.40;94.90;;;;;;10365008;28;20042;-71
2023/04/21 20:55:07;;;;;;;5.65;3.08;;;14.40;94.90;;;;;;10369589;28;20130;-70
2023/04/21 21:00:09;;;;;;;3.42;3.00;;;14.30;94.90;;;;;;10369433;28;20340;-71
2023/04/21 21:05:10;;;;;;;5.95;3.53;;;14.30;94.90;;;;;;10358226;28;20040;-71
2023/04/21 21:10:10;;;;;;;5.38;3.30;;;15.00;95.10;;;;;;10364108;28;20040;-69
2023/04/21 21:15:11;;;;;;;5.35;3.05;;;14.30;94.90;;;;;;10371071;28;20022;-69
2023/04/21 21:20:12;;;;;;;3.15;2.72;;;14.30;95.00;;;;;;10369400;28;20022;-69
2023/04/21 21:25:12;;;;;;;4.47;2.80;;;14.30;95.00;;;;;;10366814;28;20018;-69
2023/04/21 21:30:13;;;;;;;3.78;2.63;;;14.20;95.00;;;;;;10366278;28;20061;-69
2023/04/21 21:35:14;;;;;;;4.50;3.10;;;14.20;95.00;;;;;;10370130;28;20085;-69
2023/04/21 21:40:14;;;;;;;4.00;3.13;;;14.20;95.00;;;;;;10366430;28;20022;-69
2023/04/21 21:45:15;;;;;;;3.20;2.60;;;14.30;95.10;;;;;;10367208;28;20026;-69
2023/04/21 21:50:15;;;;;;;4.68;3.00;;;14.20;95.00;;;;;;10369201;28;20026;-69
2023/04/21 21:55:16;;;;;;;3.22;2.53;;;14.20;95.10;;;;;;10365670;28;20092;-69
2023/04/21 22:00:17;;;;;;;5.22;3.20;;;14.10;95.10;;;;;;10365957;28;20281;-69
2023/04/21 22:05:18;;;;;;;4.93;3.17;;;14.10;95.10;;;;;;10367762;28;20397;-69
2023/04/21 22:10:18;;;;;;;3.83;3.00;;;14.10;95.10;;;;;;10364484;28;20030;-69
2023/04/21 22:15:19;;;;;;;5.07;3.15;;;14.10;95.10;;;;;;10367810;28;20064;-69
2023/04/21 22:20:21;;;;;;;4.43;2.70;;;14.10;95.10;;;;;;10365539;28;20018;-69
2023/04/21 22:25:25;;;;;;;3.92;3.15;;;14.10;95.20;;;;;;10365807;28;20032;-69
2023/04/21 22:30:26;;;;;;;3.97;3.17;;;14.10;95.20;;;;;;10366424;28;20022;-68
2023/04/21 22:35:26;;;;;;;6.47;3.83;;;14.00;95.30;;;;;;10364958;28;20076;-69
2023/04/21 22:40:27;;;;;;;4.63;3.20;;;14.00;95.40;;;;;;10364055;28;20022;-69
2023/04/21 22:45:28;;;;;;;5.40;3.40;;;14.00;95.50;;;;;;10364417;28;20121;-69
2023/04/21 22:50:28;;;;;;;5.45;3.58;;;14.00;95.50;;;;;;10367747;28;20423;-69
2023/04/21 22:55:29;;;;;;;5.13;3.22;;;14.00;95.50;;;;;;10365504;28;20414;-69
2023/04/21 23:00:29;;;;;;;5.72;3.25;;;13.90;95.50;;;;;;10363221;28;20392;-69
2023/04/21 23:05:30;;;;;;;4.65;3.00;;;14.00;95.50;;;;;;10367526;28;20044;-69
2023/04/21 23:10:31;;;;;;;3.92;3.03;;;13.90;95.50;;;;;;10367126;28;20052;-69
2023/04/21 23:15:32;;;;;;;5.97;2.92;;;13.90;95.60;;;;;;10365089;28;20016;-69
2023/04/21 23:20:33;;;;;;;4.63;2.92;;;13.90;95.50;;;;;;10365600;28;20104;-69
2023/04/21 23:25:33;;;;;;;3.72;3.13;;;13.90;95.50;;;;;;10365665;28;20032;-69
2023/04/21 23:30:34;;;;;;;3.53;2.70;;;13.80;95.50;;;;;;10365192;28;20273;-69
2023/04/21 23:35:34;;;;;;;4.43;3.10;;;13.80;95.50;;;;;;10367290;28;20025;-69
2023/04/21 23:40:35;;;;;;;3.08;2.60;;;13.80;95.50;;;;;;10365260;28;20022;-69
2023/04/21 23:45:36;;;;;;;3.72;2.78;;;13.80;95.50;;;;;;10363530;28;20060;-69
2023/04/21 23:50:36;;;;;;;4.40;2.90;;;13.80;95.60;;;;;;10367112;28;20022;-69
2023/04/21 23:55:37;;;;;;;3.85;2.67;;;13.70;95.60;;;;;;10363792;28;20029;-69
